Time;durP1;ratioP1;P1;durP2;ratioP2;P2;SDS_P1;SDS_P2;PMS_P1;PMS_P2;Temp;Humidity;BMP_temperature;BMP_pressure;BME280_temperature;BME280_humidity;BME280_pressure;Samples;Min_cycle;Max_cycle;Signal;HPM_P1;HPM_P2
2021/01/13 00:01:06;;;;;;;9.93;6.50;;;1.00;99.90;;;;;;476469;249;27507;-69
2021/01/13 00:03:07;;;;;;;9.07;5.35;;;1.00;99.90;;;;;;476633;249;27455;-70
2021/01/13 00:05:08;;;;;;;11.38;5.75;;;1.00;99.90;;;;;;476674;249;27563;-72
2021/01/13 00:07:10;;;;;;;8.98;5.78;;;0.90;99.90;;;;;;476700;249;27523;-70
2021/01/13 00:09:11;;;;;;;11.00;5.37;;;0.90;99.90;;;;;;476682;249;27550;-70
2021/01/13 00:11:13;;;;;;;9.90;5.25;;;0.90;99.90;;;;;;476585;249;27550;-70
2021/01/13 00:13:13;;;;;;;6.07;5.47;;;0.80;99.90;;;;;;476602;249;27611;-69
2021/01/13 00:15:15;;;;;;;8.15;5.75;;;0.70;99.90;;;;;;476536;245;27936;-71
2021/01/13 00:17:16;;;;;;;10.15;6.00;;;0.70;99.90;;;;;;476544;245;27539;-69
2021/01/13 00:19:17;;;;;;;11.60;5.90;;;0.70;99.90;;;;;;476433;249;28082;-69
2021/01/13 00:21:18;;;;;;;13.80;6.60;;;0.60;99.90;;;;;;476272;245;28002;-70
2021/01/13 00:23:20;;;;;;;9.73;6.50;;;0.60;99.90;;;;;;476342;249;27966;-70
2021/01/13 00:25:21;;;;;;;6.22;5.60;;;0.60;99.90;;;;;;476562;249;27470;-71
2021/01/13 00:27:22;;;;;;;10.63;7.05;;;0.50;99.90;;;;;;476610;249;27580;-69
2021/01/13 00:29:23;;;;;;;8.63;6.75;;;0.50;99.90;;;;;;476614;249;27562;-70
2021/01/13 00:31:25;;;;;;;13.52;7.45;;;0.40;99.90;;;;;;476592;249;27506;-71
2021/01/13 00:33:26;;;;;;;9.60;6.70;;;0.30;99.90;;;;;;476521;249;27512;-69
2021/01/13 00:35:27;;;;;;;13.05;8.02;;;0.30;99.90;;;;;;476620;249;27910;-71
2021/01/13 00:37:28;;;;;;;9.77;6.12;;;0.30;99.90;;;;;;476481;249;27551;-70
2021/01/13 00:39:30;;;;;;;12.63;7.37;;;0.30;99.90;;;;;;476545;249;27554;-70
2021/01/13 00:41:31;;;;;;;11.40;6.95;;;0.30;99.90;;;;;;476508;249;27555;-70
2021/01/13 00:43:32;;;;;;;10.60;7.10;;;0.30;99.90;;;;;;476534;249;28125;-69
2021/01/13 00:45:34;;;;;;;12.18;6.80;;;0.30;99.90;;;;;;476483;249;28237;-72
2021/01/13 00:47:35;;;;;;;12.90;6.45;;;0.30;99.90;;;;;;476501;249;28151;-69
2021/01/13 00:49:36;;;;;;;9.63;6.55;;;0.20;99.90;;;;;;476520;249;27644;-70
2021/01/13 00:51:37;;;;;;;10.35;7.22;;;0.20;99.90;;;;;;476441;249;27519;-70
2021/01/13 00:53:39;;;;;;;8.88;6.97;;;0.20;99.90;;;;;;476488;249;27463;-70
2021/01/13 00:55:40;;;;;;;14.23;7.53;;;0.20;99.90;;;;;;476497;249;27857;-69
2021/01/13 00:57:41;;;;;;;16.50;7.35;;;0.10;99.90;;;;;;476513;249;27994;-71
2021/01/13 00:59:42;;;;;;;11.02;7.25;;;0.10;99.90;;;;;;476400;249;27568;-69
2021/01/13 01:01:44;;;;;;;9.65;6.10;;;0.10;99.90;;;;;;476412;249;27493;-69
2021/01/13 01:03:45;;;;;;;13.88;6.53;;;0.10;99.90;;;;;;475103;249;27959;-69
2021/01/13 01:05:46;;;;;;;10.77;6.37;;;0.10;99.90;;;;;;475142;250;27942;-70
2021/01/13 01:07:47;;;;;;;12.27;7.10;;;0.10;99.90;;;;;;475173;250;27958;-70
2021/01/13 01:09:50;;;;;;;14.65;7.40;;;0.10;99.90;;;;;;475116;250;27474;-71
2021/01/13 01:11:50;;;;;;;9.50;6.68;;;0.10;99.90;;;;;;475100;250;27552;-69
2021/01/13 01:13:51;;;;;;;9.30;6.22;;;0.10;99.90;;;;;;475254;250;27452;-70
2021/01/13 01:15:52;;;;;;;10.63;6.93;;;0.00;99.90;;;;;;475229;250;27429;-70
2021/01/13 01:17:54;;;;;;;15.75;7.00;;;0.00;99.90;;;;;;475267;250;27492;-70
2021/01/13 01:19:55;;;;;;;15.02;7.50;;;0.00;99.90;;;;;;482237;246;27424;-70
2021/01/13 01:21:56;;;;;;;14.07;7.43;;;0.00;99.90;;;;;;475145;248;27464;-70
2021/01/13 01:23:57;;;;;;;13.25;7.30;;;0.00;99.90;;;;;;476458;245;27546;-71
2021/01/13 01:25:59;;;;;;;10.38;6.95;;;-0.10;99.90;;;;;;485122;245;27950;-69
2021/01/13 01:28:00;;;;;;;12.05;7.87;;;-0.20;99.90;;;;;;482440;246;28129;-70
2021/01/13 01:30:01;;;;;;;10.93;7.80;;;-0.20;99.90;;;;;;475187;248;27532;-70
2021/01/13 01:32:02;;;;;;;14.57;7.05;;;-0.20;99.90;;;;;;476517;249;27463;-69
2021/01/13 01:34:04;;;;;;;11.23;8.10;;;-0.20;99.90;;;;;;476587;249;27560;-70
2021/01/13 01:36:05;;;;;;;10.27;7.30;;;-0.20;99.90;;;;;;476624;249;27608;-69
2021/01/13 01:38:06;;;;;;;15.23;7.25;;;-0.20;99.90;;;;;;476576;249;27566;-70
2021/01/13 01:40:07;;;;;;;12.23;7.57;;;-0.20;99.90;;;;;;476572;249;27533;-70
2021/01/13 01:42:09;;;;;;;15.43;7.20;;;-0.20;99.90;;;;;;476627;249;28059;-69
2021/01/13 01:44:10;;;;;;;16.98;8.20;;;-0.30;99.90;;;;;;476580;249;28034;-70
2021/01/13 01:46:11;;;;;;;14.15;8.00;;;-0.20;99.90;;;;;;476564;249;27423;-70
2021/01/13 01:48:13;;;;;;;17.33;8.20;;;-0.30;99.90;;;;;;476585;246;27451;-69
2021/01/13 01:50:14;;;;;;;16.12;8.60;;;-0.30;99.90;;;;;;476402;249;27829;-70
2021/01/13 01:52:15;;;;;;;18.08;9.52;;;-0.30;99.90;;;;;;476730;249;27535;-70
2021/01/13 01:54:16;;;;;;;18.42;9.10;;;-0.30;99.90;;;;;;476664;249;27551;-70
2021/01/13 01:56:17;;;;;;;18.55;9.32;;;-0.30;99.90;;;;;;476670;249;28062;-69
2021/01/13 01:58:19;;;;;;;14.05;9.00;;;-0.30;99.90;;;;;;476624;249;28044;-69
2021/01/13 02:00:30;;;;;;;12.68;8.02;;;-0.30;99.90;;;;;;476546;249;27528;-72
2021/01/13 02:02:21;;;;;;;16.15;9.10;;;-0.30;99.90;;;;;;475951;249;27547;-69
2021/01/13 02:04:23;;;;;;;17.30;8.93;;;-0.30;99.90;;;;;;476702;248;27556;-70
2021/01/13 02:06:24;;;;;;;18.40;8.70;;;-0.30;99.90;;;;;;476675;249;27645;-69
2021/01/13 02:08:25;;;;;;;15.00;9.27;;;-0.30;99.90;;;;;;476565;249;27548;-69
2021/01/13 02:10:26;;;;;;;20.42;9.77;;;-0.40;99.90;;;;;;476531;249;29041;-69
2021/01/13 02:12:27;;;;;;;20.65;9.85;;;-0.50;99.90;;;;;;476564;249;27979;-70
2021/01/13 02:14:29;;;;;;;19.02;9.10;;;-0.40;99.90;;;;;;476286;245;27551;-70
2021/01/13 02:16:30;;;;;;;18.25;8.95;;;-0.50;99.90;;;;;;476541;249;27636;-69
2021/01/13 02:18:31;;;;;;;18.12;10.27;;;-0.50;99.90;;;;;;476534;249;27646;-70
2021/01/13 02:20:33;;;;;;;14.80;9.07;;;-0.50;99.90;;;;;;476284;249;27574;-70
2021/01/13 02:22:34;;;;;;;18.52;9.48;;;-0.50;99.90;;;;;;476426;249;27575;-69
2021/01/13 02:24:35;;;;;;;16.35;9.80;;;-0.50;99.90;;;;;;476530;249;27552;-70
2021/01/13 02:26:36;;;;;;;15.95;8.48;;;-0.60;99.90;;;;;;476482;249;28011;-70
2021/01/13 02:28:38;;;;;;;15.93;9.77;;;-0.60;99.90;;;;;;476417;249;28014;-69
2021/01/13 02:30:39;;;;;;;18.08;9.60;;;-0.60;99.90;;;;;;476465;249;27556;-69
2021/01/13 02:32:40;;;;;;;19.37;10.35;;;-0.60;99.90;;;;;;476556;249;27545;-69
2021/01/13 02:34:41;;;;;;;17.55;8.75;;;-0.60;99.90;;;;;;476517;249;27917;-70
2021/01/13 02:36:43;;;;;;;11.88;7.68;;;-0.70;99.90;;;;;;476507;249;27658;-70
2021/01/13 02:38:44;;;;;;;14.45;9.00;;;-0.70;99.90;;;;;;476507;249;27617;-70
2021/01/13 02:40:45;;;;;;;17.55;8.80;;;-0.70;99.90;;;;;;476476;249;28054;-69
2021/01/13 02:42:46;;;;;;;15.88;8.70;;;-0.70;99.90;;;;;;476564;249;28089;-70
2021/01/13 02:44:48;;;;;;;16.15;9.75;;;-0.70;99.90;;;;;;476546;249;28177;-69
2021/01/13 02:46:49;;;;;;;17.25;10.20;;;-0.70;99.90;;;;;;476537;249;27521;-70
2021/01/13 02:48:50;;;;;;;14.52;9.65;;;-0.80;99.90;;;;;;476461;248;27659;-69
2021/01/13 02:50:51;;;;;;;16.48;10.18;;;-0.70;99.90;;;;;;476578;248;27536;-69
2021/01/13 02:52:53;;;;;;;17.00;9.65;;;-0.80;99.90;;;;;;476663;249;27643;-70
2021/01/13 02:54:59;;;;;;;16.83;9.35;;;-0.70;99.90;;;;;;476658;249;28075;-69
2021/01/13 02:57:05;;;;;;;22.52;9.73;;;-0.70;99.90;;;;;;476397;249;28119;-69
2021/01/13 02:59:06;;;;;;;16.45;9.45;;;-0.80;99.90;;;;;;476503;249;27472;-69
2021/01/13 03:01:08;;;;;;;19.52;9.60;;;-0.70;99.90;;;;;;476502;249;27597;-69
2021/01/13 03:03:09;;;;;;;21.08;9.75;;;-0.80;99.90;;;;;;476583;249;27626;-69
2021/01/13 03:05:10;;;;;;;13.40;9.50;;;-0.90;99.90;;;;;;476580;249;27488;-69
2021/01/13 03:07:12;;;;;;;14.80;9.15;;;-1.00;99.90;;;;;;476579;245;27459;-69
2021/01/13 03:09:13;;;;;;;19.50;10.80;;;-1.00;99.90;;;;;;476652;249;27626;-70
2021/01/13 03:11:14;;;;;;;18.20;9.50;;;-1.00;99.90;;;;;;476676;249;28091;-69
2021/01/13 03:13:15;;;;;;;20.77;9.95;;;-1.00;99.90;;;;;;476719;249;29071;-69
2021/01/13 03:15:22;;;;;;;18.85;10.25;;;-1.00;99.90;;;;;;476699;249;27595;-69
2021/01/13 03:17:23;;;;;;;20.37;10.85;;;-1.10;99.90;;;;;;476721;249;27542;-69
2021/01/13 03:19:24;;;;;;;17.75;9.80;;;-1.10;99.90;;;;;;476651;248;28030;-70
2021/01/13 03:21:26;;;;;;;21.55;9.73;;;-1.10;99.90;;;;;;476609;249;28114;-69
2021/01/13 03:23:27;;;;;;;20.17;9.15;;;-1.10;99.90;;;;;;476589;249;27637;-70
2021/01/13 03:25:28;;;;;;;13.73;9.50;;;-1.20;99.90;;;;;;476328;249;27556;-68
2021/01/13 03:27:29;;;;;;;13.57;8.68;;;-1.20;99.90;;;;;;476053;249;27915;-70
2021/01/13 03:29:31;;;;;;;16.50;9.50;;;-1.20;99.90;;;;;;476405;249;27544;-69
2021/01/13 03:31:32;;;;;;;14.00;8.93;;;-1.20;99.90;;;;;;476568;249;27580;-69
2021/01/13 03:33:33;;;;;;;14.05;8.70;;;-1.20;99.90;;;;;;476642;249;27542;-71
2021/01/13 03:35:34;;;;;;;14.35;8.52;;;-1.20;99.90;;;;;;476604;249;28066;-69
2021/01/13 03:37:36;;;;;;;14.00;9.38;;;-1.30;99.90;;;;;;476594;249;28046;-69
2021/01/13 03:39:37;;;;;;;15.77;9.60;;;-1.20;99.90;;;;;;476544;246;27663;-71
2021/01/13 03:41:38;;;;;;;14.52;10.07;;;-1.20;99.90;;;;;;476607;248;27571;-69
2021/01/13 03:43:39;;;;;;;13.35;9.35;;;-1.20;99.90;;;;;;476540;249;27643;-70
2021/01/13 03:45:41;;;;;;;12.93;8.55;;;-1.20;99.90;;;;;;476689;248;27596;-69
2021/01/13 03:47:42;;;;;;;19.55;9.48;;;-1.30;99.90;;;;;;476587;249;27666;-69
2021/01/13 03:49:43;;;;;;;22.80;8.75;;;-1.30;99.90;;;;;;476513;249;28018;-70
2021/01/13 03:51:45;;;;;;;18.27;10.18;;;-1.30;99.90;;;;;;476494;249;28163;-72
2021/01/13 03:53:46;;;;;;;18.90;10.05;;;-1.30;99.90;;;;;;476389;249;27550;-71
2021/01/13 03:55:47;;;;;;;18.98;9.48;;;-1.20;99.90;;;;;;476459;249;27542;-69
2021/01/13 03:57:48;;;;;;;15.05;7.78;;;-1.20;99.90;;;;;;476445;249;27575;-69
2021/01/13 03:59:50;;;;;;;12.05;7.37;;;-1.20;99.90;;;;;;476454;249;27554;-68
2021/01/13 04:01:51;;;;;;;12.88;9.10;;;-1.20;99.90;;;;;;476448;249;27582;-69
2021/01/13 04:03:52;;;;;;;14.40;8.85;;;-1.20;99.90;;;;;;476446;249;28992;-69
2021/01/13 04:05:53;;;;;;;13.55;8.43;;;-1.10;99.90;;;;;;476515;249;28040;-70
2021/01/13 04:07:55;;;;;;;19.35;9.27;;;-1.10;99.90;;;;;;476493;249;28533;-69
2021/01/13 04:09:56;;;;;;;15.30;7.82;;;-1.10;99.90;;;;;;476470;249;27559;-70
2021/01/13 04:11:57;;;;;;;18.27;8.10;;;-1.00;99.90;;;;;;476444;249;27463;-70
2021/01/13 04:13:58;;;;;;;15.55;8.70;;;-1.10;99.90;;;;;;476468;249;27598;-69
2021/01/13 04:16:00;;;;;;;20.48;9.65;;;-1.10;99.90;;;;;;476537;249;27623;-70
2021/01/13 04:18:01;;;;;;;18.37;9.50;;;-1.20;99.90;;;;;;476577;249;27517;-69
2021/01/13 04:20:02;;;;;;;14.65;8.82;;;-1.30;99.90;;;;;;476598;249;27960;-69
2021/01/13 04:22:03;;;;;;;16.25;9.05;;;-1.30;99.90;;;;;;476588;249;28074;-69
2021/01/13 04:24:05;;;;;;;18.23;10.10;;;-1.30;99.90;;;;;;475368;249;27648;-69
2021/01/13 04:26:06;;;;;;;18.20;9.55;;;-1.30;99.90;;;;;;476494;249;27536;-70
2021/01/13 04:28:07;;;;;;;17.37;8.50;;;-1.30;99.90;;;;;;476495;249;27456;-69
2021/01/13 04:30:08;;;;;;;26.75;10.52;;;-1.20;99.90;;;;;;476339;249;27474;-69
2021/01/13 04:32:10;;;;;;;17.45;9.13;;;-1.20;99.90;;;;;;476530;249;27515;-71
2021/01/13 04:34:11;;;;;;;17.02;8.38;;;-1.20;99.90;;;;;;476586;249;27968;-69
2021/01/13 04:36:12;;;;;;;20.92;9.48;;;-1.10;99.90;;;;;;476639;249;28000;-69
2021/01/13 04:38:13;;;;;;;13.73;8.00;;;-1.00;99.90;;;;;;476655;249;28221;-69
2021/01/13 04:40:15;;;;;;;19.02;9.38;;;-1.00;99.90;;;;;;476605;249;27524;-69
2021/01/13 04:42:16;;;;;;;15.60;8.02;;;-1.00;99.90;;;;;;476689;249;27545;-71
2021/01/13 04:44:17;;;;;;;17.02;7.85;;;-1.00;99.90;;;;;;476661;249;27534;-69
2021/01/13 04:46:18;;;;;;;18.52;9.48;;;-1.00;99.90;;;;;;476679;249;27559;-69
2021/01/13 04:48:20;;;;;;;26.00;10.05;;;-1.10;99.90;;;;;;476687;249;27528;-69
2021/01/13 04:50:21;;;;;;;21.02;9.48;;;-1.10;99.90;;;;;;476569;249;28055;-69
2021/01/13 04:52:22;;;;;;;15.73;9.13;;;-1.10;99.90;;;;;;476490;245;28042;-69
2021/01/13 04:54:23;;;;;;;14.68;9.40;;;-1.10;99.90;;;;;;476528;249;27528;-69
2021/01/13 04:56:25;;;;;;;15.15;8.07;;;-1.10;99.90;;;;;;476398;247;27467;-69
2021/01/13 04:58:26;;;;;;;15.50;9.30;;;-1.10;99.90;;;;;;476478;249;27927;-70
2021/01/13 05:00:27;;;;;;;15.98;7.70;;;-1.10;99.90;;;;;;476463;249;27515;-69
2021/01/13 05:02:28;;;;;;;14.40;7.60;;;-1.10;99.90;;;;;;476545;249;27551;-69
2021/01/13 05:04:30;;;;;;;17.87;8.57;;;-1.10;99.90;;;;;;476603;249;27552;-69
2021/01/13 05:06:31;;;;;;;18.83;9.25;;;-1.20;99.90;;;;;;476619;249;28015;-70
2021/01/13 05:08:32;;;;;;;14.35;8.07;;;-1.20;99.90;;;;;;476648;249;28048;-70
2021/01/13 05:10:33;;;;;;;18.80;8.27;;;-1.20;99.90;;;;;;476534;249;27516;-69
2021/01/13 05:12:35;;;;;;;12.98;7.90;;;-1.20;99.90;;;;;;476596;249;27599;-69
2021/01/13 05:14:36;;;;;;;16.00;8.20;;;-1.20;99.90;;;;;;476559;249;27649;-69
2021/01/13 05:16:37;;;;;;;13.10;8.32;;;-1.30;99.90;;;;;;476544;249;27592;-69
2021/01/13 05:18:39;;;;;;;12.93;9.43;;;-1.30;99.90;;;;;;476473;249;27472;-69
2021/01/13 05:20:40;;;;;;;16.75;9.38;;;-1.40;99.90;;;;;;476437;249;28012;-69
2021/01/13 05:22:41;;;;;;;16.87;8.75;;;-1.30;99.90;;;;;;476469;249;28021;-69
2021/01/13 05:24:42;;;;;;;16.00;9.43;;;-1.40;99.90;;;;;;476440;249;27677;-70
2021/01/13 05:26:44;;;;;;;19.35;9.80;;;-1.50;99.90;;;;;;476435;249;27544;-69
2021/01/13 05:28:45;;;;;;;14.02;9.07;;;-1.50;99.90;;;;;;476479;249;27574;-69
2021/01/13 05:30:46;;;;;;;15.93;8.77;;;-1.50;99.90;;;;;;476446;249;27555;-70
2021/01/13 05:32:47;;;;;;;15.32;8.90;;;-1.50;99.90;;;;;;476488;249;27534;-69
2021/01/13 05:34:49;;;;;;;15.02;8.52;;;-1.50;99.90;;;;;;476462;249;27615;-70
2021/01/13 05:36:50;;;;;;;16.87;7.97;;;-1.60;99.90;;;;;;476508;249;28835;-69
2021/01/13 05:38:51;;;;;;;13.27;8.10;;;-1.60;99.90;;;;;;476538;249;28020;-69
2021/01/13 05:40:52;;;;;;;13.77;7.62;;;-1.60;99.90;;;;;;476527;249;27551;-69
2021/01/13 05:42:54;;;;;;;14.70;7.57;;;-1.70;99.90;;;;;;476678;249;27508;-69
2021/01/13 05:44:55;;;;;;;16.95;8.57;;;-1.70;99.90;;;;;;476696;249;27653;-71
2021/01/13 05:46:57;;;;;;;14.18;7.20;;;-1.60;99.90;;;;;;476698;249;27516;-69
2021/01/13 05:48:57;;;;;;;18.20;7.85;;;-1.60;99.90;;;;;;476617;249;27670;-69
2021/01/13 05:50:59;;;;;;;11.38;7.20;;;-1.60;99.90;;;;;;476564;249;27573;-70
2021/01/13 05:53:00;;;;;;;14.93;8.15;;;-1.60;99.90;;;;;;476514;249;27981;-69
2021/01/13 05:55:01;;;;;;;15.13;8.70;;;-1.60;99.90;;;;;;476624;248;29217;-70
2021/01/13 05:57:02;;;;;;;16.40;9.18;;;-1.60;99.90;;;;;;476561;248;27515;-69
2021/01/13 05:59:04;;;;;;;15.77;8.90;;;-1.60;99.90;;;;;;476515;249;27561;-69
2021/01/13 06:01:05;;;;;;;18.17;9.73;;;-1.60;99.90;;;;;;476508;249;27556;-70
2021/01/13 06:03:06;;;;;;;25.27;10.10;;;-1.60;99.90;;;;;;476634;249;27521;-69
2021/01/13 06:05:07;;;;;;;17.45;9.38;;;-1.60;99.90;;;;;;476582;245;27581;-69
2021/01/13 06:07:09;;;;;;;24.50;9.82;;;-1.60;99.90;;;;;;476569;249;28809;-69
2021/01/13 06:09:10;;;;;;;28.62;9.40;;;-1.60;99.90;;;;;;476473;245;29223;-69
2021/01/13 06:11:11;;;;;;;20.88;7.90;;;-1.50;99.90;;;;;;476421;249;28050;-69
2021/01/13 06:13:12;;;;;;;16.33;8.25;;;-1.50;99.90;;;;;;476591;249;27498;-69
2021/01/13 06:15:14;;;;;;;14.38;8.57;;;-1.50;99.90;;;;;;476574;249;27554;-70
2021/01/13 06:17:15;;;;;;;15.38;8.20;;;-1.40;99.90;;;;;;476540;249;27912;-70
2021/01/13 06:19:16;;;;;;;17.05;8.98;;;-1.40;99.90;;;;;;476518;249;27465;-69
2021/01/13 06:21:17;;;;;;;19.35;8.90;;;-1.40;99.90;;;;;;476508;249;27548;-69
2021/01/13 06:23:19;;;;;;;18.08;10.32;;;-1.30;99.90;;;;;;476536;249;27940;-69
2021/01/13 06:25:20;;;;;;;13.90;8.60;;;-1.40;99.90;;;;;;476555;249;29146;-69
2021/01/13 06:27:21;;;;;;;19.83;9.32;;;-1.30;99.90;;;;;;476645;249;27540;-70
2021/01/13 06:29:23;;;;;;;17.52;10.20;;;-1.30;99.90;;;;;;476619;249;27524;-69
2021/01/13 06:31:24;;;;;;;20.33;10.35;;;-1.30;99.90;;;;;;476623;249;27562;-70
2021/01/13 06:33:25;;;;;;;22.67;10.73;;;-1.30;99.90;;;;;;476670;249;27673;-69
2021/01/13 06:35:26;;;;;;;20.27;10.40;;;-1.30;99.90;;;;;;476629;249;27571;-70
2021/01/13 06:37:28;;;;;;;22.23;11.20;;;-1.30;99.90;;;;;;476624;249;28062;-70
2021/01/13 06:39:29;;;;;;;20.40;10.45;;;-1.30;99.90;;;;;;475828;249;27564;-69
2021/01/13 06:41:30;;;;;;;16.17;10.77;;;-1.20;99.90;;;;;;475862;249;27539;-69
2021/01/13 06:43:31;;;;;;;19.52;10.93;;;-1.20;99.90;;;;;;476406;249;28029;-70
2021/01/13 06:45:33;;;;;;;21.37;11.15;;;-1.10;99.90;;;;;;476485;249;27546;-69
2021/01/13 06:47:34;;;;;;;19.80;10.55;;;-1.10;99.90;;;;;;476331;249;27608;-69
2021/01/13 06:49:35;;;;;;;25.67;11.30;;;-1.00;99.90;;;;;;476493;249;28016;-69
2021/01/13 06:51:36;;;;;;;20.65;9.52;;;-1.10;99.90;;;;;;476499;249;27966;-69
2021/01/13 06:53:38;;;;;;;24.85;9.85;;;-1.10;99.90;;;;;;476536;249;27559;-69
2021/01/13 06:55:39;;;;;;;20.23;10.85;;;-1.10;99.90;;;;;;476472;249;27644;-71
2021/01/13 06:57:40;;;;;;;17.33;9.88;;;-1.10;99.90;;;;;;476504;249;27582;-69
2021/01/13 06:59:41;;;;;;;18.55;10.07;;;-1.10;99.90;;;;;;476564;249;27652;-69
2021/01/13 07:01:43;;;;;;;21.15;11.98;;;-1.10;99.90;;;;;;476517;249;27523;-69
2021/01/13 07:03:44;;;;;;;21.33;10.98;;;-1.00;99.90;;;;;;476547;249;27916;-69
2021/01/13 07:05:45;;;;;;;23.10;11.15;;;-1.00;99.90;;;;;;476611;249;27555;-70
2021/01/13 07:07:46;;;;;;;25.77;12.23;;;-1.00;99.90;;;;;;476586;249;27524;-69
2021/01/13 07:09:54;;;;;;;15.20;10.13;;;-1.00;99.90;;;;;;476625;249;27658;-71
2021/01/13 07:11:55;;;;;;;15.10;10.13;;;-0.90;99.90;;;;;;476565;249;28169;-69
2021/01/13 07:13:56;;;;;;;21.33;11.70;;;-0.90;99.90;;;;;;476599;249;27552;-70
2021/01/13 07:15:57;;;;;;;25.98;10.80;;;-0.80;99.90;;;;;;476593;249;27496;-69
2021/01/13 07:17:59;;;;;;;26.45;11.63;;;-0.80;99.90;;;;;;476636;249;27544;-69
2021/01/13 07:20:00;;;;;;;17.67;10.85;;;-0.70;99.90;;;;;;476634;249;27628;-69
2021/01/13 07:22:01;;;;;;;23.15;11.20;;;-0.70;99.90;;;;;;476650;249;28051;-69
2021/01/13 07:24:03;;;;;;;18.42;10.75;;;-0.60;99.90;;;;;;476669;249;29105;-69
2021/01/13 07:26:04;;;;;;;22.45;11.70;;;-0.60;99.90;;;;;;476647;249;27540;-70
2021/01/13 07:28:05;;;;;;;23.30;11.63;;;-0.50;99.90;;;;;;476630;249;27523;-69
2021/01/13 07:30:06;;;;;;;19.70;11.82;;;-0.50;99.90;;;;;;476639;249;27659;-72
2021/01/13 07:32:08;;;;;;;22.50;11.73;;;-0.50;99.90;;;;;;476568;249;27508;-70
2021/01/13 07:34:09;;;;;;;20.08;11.52;;;-0.40;99.90;;;;;;476572;249;28102;-69
2021/01/13 07:38:11;;;;;;;19.85;11.48;;;-0.40;99.90;;;;;;510587;233;40826;-70
2021/01/13 07:40:12;;;;;;;25.85;12.45;;;-0.30;99.90;;;;;;502955;236;27487;-70
2021/01/13 07:42:14;;;;;;;21.95;11.07;;;-0.30;99.90;;;;;;503032;236;27397;-69
2021/01/13 07:44:15;;;;;;;20.80;12.10;;;-0.30;99.90;;;;;;503021;236;27395;-71
2021/01/13 07:46:16;;;;;;;23.10;13.07;;;-0.20;99.90;;;;;;502979;236;27873;-70
2021/01/13 07:48:17;;;;;;;24.90;13.85;;;-0.20;99.90;;;;;;502996;236;27952;-70
2021/01/13 07:50:19;;;;;;;23.38;12.82;;;-0.10;99.90;;;;;;502927;236;27562;-70
2021/01/13 07:52:20;;;;;;;26.83;14.98;;;-0.10;99.90;;;;;;503101;236;27473;-70
2021/01/13 07:54:21;;;;;;;29.55;15.57;;;-0.10;99.90;;;;;;503114;236;27839;-69
2021/01/13 07:56:22;;;;;;;38.05;16.65;;;0.00;99.90;;;;;;503148;236;27382;-70
2021/01/13 07:58:24;;;;;;;43.83;16.98;;;0.00;99.90;;;;;;502999;236;27473;-70
2021/01/13 08:00:25;;;;;;;41.22;15.52;;;0.10;99.90;;;;;;502852;236;27815;-69
2021/01/13 08:02:26;;;;;;;33.60;15.93;;;0.10;99.90;;;;;;502961;236;28076;-70
2021/01/13 08:04:27;;;;;;;28.55;15.38;;;0.20;99.90;;;;;;502980;236;27856;-70
2021/01/13 08:06:29;;;;;;;33.75;16.30;;;0.20;99.90;;;;;;502964;236;27493;-70
2021/01/13 08:08:30;;;;;;;32.70;14.87;;;0.20;99.90;;;;;;502964;236;27509;-70
2021/01/13 08:10:31;;;;;;;36.38;15.75;;;0.30;99.90;;;;;;502911;236;27486;-70
2021/01/13 08:12:33;;;;;;;28.15;14.87;;;0.30;99.90;;;;;;502964;236;27619;-71
2021/01/13 08:14:34;;;;;;;36.75;14.68;;;0.40;99.90;;;;;;502931;236;27442;-69
2021/01/13 08:16:35;;;;;;;30.45;14.93;;;0.40;99.90;;;;;;502882;236;28002;-69
2021/01/13 08:18:45;;;;;;;28.42;14.80;;;0.40;99.90;;;;;;502985;236;28068;-70
2021/01/13 08:20:39;;;;;;;31.87;14.00;;;0.50;99.90;;;;;;502200;236;27441;-69
2021/01/13 08:22:39;;;;;;;33.83;15.57;;;0.60;99.90;;;;;;502905;236;27481;-69
2021/01/13 08:24:43;;;;;;;30.98;15.15;;;0.60;99.90;;;;;;503129;236;27338;-69
2021/01/13 08:26:41;;;;;;;34.33;16.30;;;0.60;99.90;;;;;;502867;236;27394;-68
2021/01/13 08:28:43;;;;;;;40.95;15.90;;;0.60;99.90;;;;;;503099;236;27847;-71
2021/01/13 08:30:44;;;;;;;25.67;13.70;;;0.60;99.90;;;;;;502932;236;27395;-69
2021/01/13 08:32:45;;;;;;;25.30;13.90;;;0.60;99.90;;;;;;503167;236;27982;-70
2021/01/13 08:34:49;;;;;;;30.58;14.25;;;0.70;99.90;;;;;;503184;236;27861;-69
2021/01/13 08:36:48;;;;;;;34.63;16.40;;;0.70;99.90;;;;;;502980;236;27514;-69
2021/01/13 08:38:49;;;;;;;31.50;14.25;;;0.70;99.90;;;;;;503126;236;27398;-71
2021/01/13 08:40:50;;;;;;;28.77;14.87;;;0.80;99.90;;;;;;503042;236;27421;-69
2021/01/13 08:42:51;;;;;;;27.77;13.48;;;0.90;99.90;;;;;;503051;236;27462;-70
2021/01/13 08:44:54;;;;;;;28.58;13.70;;;0.90;99.90;;;;;;503000;236;27490;-69
2021/01/13 08:46:54;;;;;;;26.00;13.62;;;0.90;99.90;;;;;;502884;236;28010;-70
2021/01/13 08:48:55;;;;;;;26.23;13.68;;;0.90;99.90;;;;;;502896;236;27981;-70
2021/01/13 08:50:56;;;;;;;26.80;12.50;;;1.00;99.90;;;;;;502725;236;27923;-69
2021/01/13 08:53:00;;;;;;;25.17;13.55;;;0.90;99.90;;;;;;502885;236;27506;-71
2021/01/13 08:54:59;;;;;;;26.83;12.60;;;0.90;99.90;;;;;;502647;236;27557;-71
2021/01/13 08:57:03;;;;;;;20.40;12.55;;;0.90;99.90;;;;;;502846;236;27510;-70
2021/01/13 08:59:01;;;;;;;26.83;13.57;;;0.90;99.90;;;;;;502648;236;27533;-70
2021/01/13 09:01:03;;;;;;;23.95;12.82;;;0.90;99.90;;;;;;502793;236;27517;-70
2021/01/13 09:03:04;;;;;;;25.37;13.80;;;0.90;99.90;;;;;;502885;236;27975;-71
2021/01/13 09:05:05;;;;;;;32.90;14.02;;;1.00;99.90;;;;;;502856;236;27980;-70
2021/01/13 09:07:06;;;;;;;25.77;12.77;;;1.00;99.90;;;;;;502857;236;27486;-70
2021/01/13 09:09:08;;;;;;;27.92;13.00;;;1.00;99.90;;;;;;502874;236;27469;-69
2021/01/13 09:11:09;;;;;;;30.37;14.38;;;0.90;99.90;;;;;;502882;236;27511;-70
2021/01/13 09:13:10;;;;;;;22.00;13.88;;;0.80;99.90;;;;;;502991;236;27516;-69
2021/01/13 09:15:11;;;;;;;27.23;14.05;;;0.90;99.90;;;;;;502974;236;27568;-70
2021/01/13 09:17:13;;;;;;;26.35;13.90;;;0.90;99.90;;;;;;502871;236;27506;-70
2021/01/13 09:19:14;;;;;;;29.33;15.13;;;1.00;99.90;;;;;;502811;236;27958;-69
2021/01/13 09:21:15;;;;;;;30.92;14.43;;;1.00;99.90;;;;;;502804;236;28834;-70
2021/01/13 09:23:16;;;;;;;37.75;14.63;;;1.10;99.90;;;;;;502922;236;27449;-69
2021/01/13 09:25:18;;;;;;;27.17;14.87;;;1.10;99.90;;;;;;502906;236;27494;-70
2021/01/13 09:27:19;;;;;;;30.48;15.07;;;1.10;99.90;;;;;;502896;236;27502;-70
2021/01/13 09:29:20;;;;;;;30.83;14.77;;;1.10;99.90;;;;;;502910;236;27601;-70
2021/01/13 09:31:22;;;;;;;23.35;13.93;;;1.10;99.90;;;;;;502479;236;27615;-71
2021/01/13 09:33:23;;;;;;;26.73;15.25;;;1.10;99.90;;;;;;502882;236;27981;-69
2021/01/13 09:35:24;;;;;;;31.12;14.45;;;1.20;99.90;;;;;;502701;236;27943;-70
2021/01/13 09:37:25;;;;;;;27.35;14.25;;;1.20;99.90;;;;;;502714;236;28052;-69
2021/01/13 09:39:27;;;;;;;29.50;14.73;;;1.30;99.90;;;;;;502861;236;27508;-70
2021/01/13 09:41:28;;;;;;;26.35;14.82;;;1.40;99.90;;;;;;502891;236;27576;-71
2021/01/13 09:43:29;;;;;;;24.20;14.80;;;1.40;99.90;;;;;;503047;236;27473;-70
2021/01/13 09:45:30;;;;;;;26.80;15.35;;;1.40;99.90;;;;;;503076;236;27481;-70
2021/01/13 09:47:32;;;;;;;27.58;14.55;;;1.30;99.90;;;;;;503026;236;27473;-69
2021/01/13 09:49:33;;;;;;;26.30;14.05;;;1.20;99.90;;;;;;502992;236;27896;-69
2021/01/13 09:51:34;;;;;;;30.50;13.62;;;1.30;99.90;;;;;;502947;236;27938;-70
2021/01/13 09:53:35;;;;;;;26.40;13.95;;;1.30;99.90;;;;;;503035;236;27445;-69
2021/01/13 09:55:37;;;;;;;27.50;13.40;;;1.30;99.90;;;;;;502999;236;27475;-69
2021/01/13 09:57:38;;;;;;;24.67;14.15;;;1.30;99.90;;;;;;502843;236;27506;-70
2021/01/13 09:59:39;;;;;;;21.33;12.82;;;1.40;99.90;;;;;;502836;236;27599;-69
2021/01/13 10:01:42;;;;;;;18.92;11.15;;;1.20;99.90;;;;;;502664;236;27494;-70
2021/01/13 10:03:42;;;;;;;28.15;12.25;;;1.20;99.90;;;;;;502828;236;27978;-70
2021/01/13 10:05:43;;;;;;;22.58;11.57;;;1.30;99.90;;;;;;502858;236;27975;-70
2021/01/13 10:07:44;;;;;;;20.30;11.40;;;1.40;99.90;;;;;;502848;236;27479;-70
2021/01/13 10:09:45;;;;;;;23.10;11.93;;;1.50;99.90;;;;;;502814;236;27551;-69
2021/01/13 10:11:47;;;;;;;20.77;11.20;;;1.40;99.90;;;;;;502790;236;27470;-69
2021/01/13 10:13:48;;;;;;;20.25;11.82;;;1.50;99.90;;;;;;502863;236;27549;-69
2021/01/13 10:15:49;;;;;;;20.12;10.70;;;1.50;99.90;;;;;;502844;236;27509;-70
2021/01/13 10:17:50;;;;;;;21.37;11.05;;;1.50;99.90;;;;;;502829;236;27620;-69
2021/01/13 10:19:52;;;;;;;19.40;11.63;;;1.50;99.90;;;;;;502849;236;27938;-69
2021/01/13 10:21:53;;;;;;;25.25;12.13;;;1.60;99.90;;;;;;502756;236;29824;-69
2021/01/13 10:23:54;;;;;;;23.58;10.55;;;1.70;99.90;;;;;;502848;236;27497;-70
2021/01/13 10:25:56;;;;;;;20.08;10.70;;;1.80;99.90;;;;;;502855;236;27568;-70